sensor_id;sensor_type;location;lat;lon;timestamp;P1;durP1;ratioP1;P2;durP2;ratioP2
26082;SDS011;13848;49.018;12.078;2022-11-20T00:01:05;26.20;;;13.45;;
26082;SDS011;13848;49.018;12.078;2022-11-20T00:03:32;25.25;;;13.07;;
26082;SDS011;13848;49.018;12.078;2022-11-20T00:05:59;28.23;;;13.65;;
26082;SDS011;13848;49.018;12.078;2022-11-20T00:08:25;27.13;;;13.63;;
26082;SDS011;13848;49.018;12.078;2022-11-20T00:10:51;24.33;;;13.85;;
26082;SDS011;13848;49.018;12.078;2022-11-20T00:13:17;28.88;;;14.60;;
26082;SDS011;13848;49.018;12.078;2022-11-20T00:15:44;25.60;;;12.95;;
26082;SDS011;13848;49.018;12.078;2022-11-20T00:18:10;29.50;;;14.55;;
26082;SDS011;13848;49.018;12.078;2022-11-20T00:20:36;27.65;;;14.07;;
26082;SDS011;13848;49.018;12.078;2022-11-20T00:23:02;26.70;;;13.73;;
26082;SDS011;13848;49.018;12.078;2022-11-20T00:25:28;24.98;;;13.23;;
26082;SDS011;13848;49.018;12.078;2022-11-20T00:27:54;26.90;;;13.30;;
26082;SDS011;13848;49.018;12.078;2022-11-20T00:30:20;26.92;;;14.73;;
26082;SDS011;13848;49.018;12.078;2022-11-20T00:32:47;26.42;;;13.95;;
26082;SDS011;13848;49.018;12.078;2022-11-20T00:35:13;24.90;;;13.90;;
26082;SDS011;13848;49.018;12.078;2022-11-20T00:37:39;27.08;;;13.75;;
26082;SDS011;13848;49.018;12.078;2022-11-20T00:40:05;26.60;;;13.65;;
26082;SDS011;13848;49.018;12.078;2022-11-20T00:42:32;24.73;;;13.68;;
26082;SDS011;13848;49.018;12.078;2022-11-20T00:44:58;25.10;;;13.80;;
26082;SDS011;13848;49.018;12.078;2022-11-20T00:47:24;29.45;;;14.68;;
26082;SDS011;13848;49.018;12.078;2022-11-20T00:49:51;26.63;;;13.48;;
26082;SDS011;13848;49.018;12.078;2022-11-20T00:52:17;31.30;;;14.52;;
26082;SDS011;13848;49.018;12.078;2022-11-20T00:54:43;35.17;;;15.80;;
26082;SDS011;13848;49.018;12.078;2022-11-20T00:57:09;32.92;;;15.95;;
26082;SDS011;13848;49.018;12.078;2022-11-20T00:59:35;29.63;;;14.95;;
26082;SDS011;13848;49.018;12.078;2022-11-20T01:02:01;29.38;;;15.23;;
26082;SDS011;13848;49.018;12.078;2022-11-20T01:04:27;28.50;;;15.20;;
26082;SDS011;13848;49.018;12.078;2022-11-20T01:06:54;27.02;;;13.55;;
26082;SDS011;13848;49.018;12.078;2022-11-20T01:09:20;30.67;;;14.32;;
26082;SDS011;13848;49.018;12.078;2022-11-20T01:11:46;27.70;;;13.73;;
26082;SDS011;13848;49.018;12.078;2022-11-20T01:14:12;25.70;;;13.95;;
26082;SDS011;13848;49.018;12.078;2022-11-20T01:16:40;25.38;;;13.50;;
26082;SDS011;13848;49.018;12.078;2022-11-20T01:19:09;25.85;;;13.55;;
26082;SDS011;13848;49.018;12.078;2022-11-20T01:21:37;23.17;;;12.32;;
26082;SDS011;13848;49.018;12.078;2022-11-20T01:24:07;26.42;;;13.02;;
26082;SDS011;13848;49.018;12.078;2022-11-20T01:26:35;25.30;;;12.30;;
26082;SDS011;13848;49.018;12.078;2022-11-20T01:29:02;26.25;;;12.55;;
26082;SDS011;13848;49.018;12.078;2022-11-20T01:31:29;25.20;;;12.77;;
26082;SDS011;13848;49.018;12.078;2022-11-20T01:33:57;28.45;;;13.48;;
26082;SDS011;13848;49.018;12.078;2022-11-20T01:36:26;24.73;;;13.02;;
26082;SDS011;13848;49.018;12.078;2022-11-20T01:38:53;26.98;;;12.88;;
26082;SDS011;13848;49.018;12.078;2022-11-20T01:41:23;24.35;;;12.25;;
26082;SDS011;13848;49.018;12.078;2022-11-20T01:43:50;26.23;;;12.20;;
26082;SDS011;13848;49.018;12.078;2022-11-20T01:46:16;24.38;;;11.80;;
26082;SDS011;13848;49.018;12.078;2022-11-20T01:48:44;25.45;;;11.98;;
26082;SDS011;13848;49.018;12.078;2022-11-20T01:53:42;21.25;;;11.38;;
26082;SDS011;13848;49.018;12.078;2022-11-20T01:56:09;23.80;;;12.35;;
26082;SDS011;13848;49.018;12.078;2022-11-20T01:58:41;22.75;;;11.80;;
26082;SDS011;13848;49.018;12.078;2022-11-20T02:01:11;21.55;;;11.23;;
26082;SDS011;13848;49.018;12.078;2022-11-20T02:03:38;21.67;;;11.15;;
26082;SDS011;13848;49.018;12.078;2022-11-20T02:06:06;22.42;;;12.02;;
26082;SDS011;13848;49.018;12.078;2022-11-20T02:08:37;26.38;;;12.60;;
26082;SDS011;13848;49.018;12.078;2022-11-20T02:11:03;24.42;;;11.93;;
26082;SDS011;13848;49.018;12.078;2022-11-20T02:13:29;25.58;;;12.48;;
26082;SDS011;13848;49.018;12.078;2022-11-20T02:15:56;21.63;;;11.32;;
26082;SDS011;13848;49.018;12.078;2022-11-20T02:18:23;22.90;;;11.82;;
26082;SDS011;13848;49.018;12.078;2022-11-20T02:20:52;25.05;;;12.98;;
26082;SDS011;13848;49.018;12.078;2022-11-20T02:23:24;23.20;;;12.00;;
26082;SDS011;13848;49.018;12.078;2022-11-20T02:25:59;22.38;;;11.38;;
26082;SDS011;13848;49.018;12.078;2022-11-20T02:28:29;26.70;;;11.77;;
26082;SDS011;13848;49.018;12.078;2022-11-20T02:30:55;25.45;;;12.77;;
26082;SDS011;13848;49.018;12.078;2022-11-20T02:33:21;23.95;;;12.95;;
26082;SDS011;13848;49.018;12.078;2022-11-20T02:35:47;25.50;;;12.13;;
26082;SDS011;13848;49.018;12.078;2022-11-20T02:38:13;25.42;;;12.65;;
26082;SDS011;13848;49.018;12.078;2022-11-20T02:40:40;24.33;;;12.23;;
26082;SDS011;13848;49.018;12.078;2022-11-20T02:43:07;25.45;;;12.18;;
26082;SDS011;13848;49.018;12.078;2022-11-20T02:45:34;23.02;;;12.63;;
26082;SDS011;13848;49.018;12.078;2022-11-20T02:48:00;22.90;;;12.40;;
26082;SDS011;13848;49.018;12.078;2022-11-20T02:50:26;23.95;;;12.13;;
26082;SDS011;13848;49.018;12.078;2022-11-20T02:52:52;23.90;;;12.30;;
26082;SDS011;13848;49.018;12.078;2022-11-20T02:55:18;22.98;;;12.27;;
26082;SDS011;13848;49.018;12.078;2022-11-20T02:57:44;23.13;;;12.02;;
26082;SDS011;13848;49.018;12.078;2022-11-20T03:00:12;26.63;;;13.52;;
26082;SDS011;13848;49.018;12.078;2022-11-20T03:02:38;22.92;;;12.20;;
26082;SDS011;13848;49.018;12.078;2022-11-20T03:05:04;23.85;;;11.75;;
26082;SDS011;13848;49.018;12.078;2022-11-20T03:07:30;24.55;;;12.75;;
26082;SDS011;13848;49.018;12.078;2022-11-20T03:09:56;24.63;;;12.00;;
26082;SDS011;13848;49.018;12.078;2022-11-20T03:12:22;25.05;;;12.60;;
26082;SDS011;13848;49.018;12.078;2022-11-20T03:14:48;26.10;;;12.27;;
26082;SDS011;13848;49.018;12.078;2022-11-20T03:17:15;22.23;;;11.38;;
26082;SDS011;13848;49.018;12.078;2022-11-20T03:19:41;24.38;;;12.90;;
26082;SDS011;13848;49.018;12.078;2022-11-20T03:22:07;23.58;;;11.65;;
26082;SDS011;13848;49.018;12.078;2022-11-20T03:24:33;25.25;;;12.63;;
26082;SDS011;13848;49.018;12.078;2022-11-20T03:26:59;22.38;;;11.82;;
26082;SDS011;13848;49.018;12.078;2022-11-20T03:29:25;23.33;;;12.02;;
26082;SDS011;13848;49.018;12.078;2022-11-20T03:31:51;19.73;;;11.00;;
26082;SDS011;13848;49.018;12.078;2022-11-20T03:34:18;20.35;;;11.55;;
26082;SDS011;13848;49.018;12.078;2022-11-20T03:36:44;21.95;;;11.35;;
26082;SDS011;13848;49.018;12.078;2022-11-20T03:39:10;23.70;;;11.57;;
26082;SDS011;13848;49.018;12.078;2022-11-20T03:41:37;23.40;;;11.52;;
26082;SDS011;13848;49.018;12.078;2022-11-20T03:44:06;21.63;;;11.48;;
26082;SDS011;13848;49.018;12.078;2022-11-20T03:46:32;19.90;;;10.93;;
26082;SDS011;13848;49.018;12.078;2022-11-20T03:48:58;21.20;;;11.43;;
26082;SDS011;13848;49.018;12.078;2022-11-20T03:51:26;21.50;;;11.10;;
26082;SDS011;13848;49.018;12.078;2022-11-20T03:53:54;20.02;;;10.80;;
26082;SDS011;13848;49.018;12.078;2022-11-20T03:56:22;22.52;;;11.57;;
26082;SDS011;13848;49.018;12.078;2022-11-20T03:58:49;21.27;;;11.30;;
26082;SDS011;13848;49.018;12.078;2022-11-20T04:01:16;21.13;;;10.75;;
26082;SDS011;13848;49.018;12.078;2022-11-20T04:03:44;23.92;;;11.32;;
26082;SDS011;13848;49.018;12.078;2022-11-20T04:06:12;23.02;;;11.63;;
26082;SDS011;13848;49.018;12.078;2022-11-20T04:08:41;20.30;;;11.27;;
26082;SDS011;13848;49.018;12.078;2022-11-20T04:11:08;21.63;;;10.88;;
26082;SDS011;13848;49.018;12.078;2022-11-20T04:13:35;24.85;;;12.38;;
26082;SDS011;13848;49.018;12.078;2022-11-20T04:16:04;23.73;;;12.35;;
26082;SDS011;13848;49.018;12.078;2022-11-20T04:18:30;22.83;;;11.70;;
26082;SDS011;13848;49.018;12.078;2022-11-20T04:20:56;21.20;;;11.55;;
26082;SDS011;13848;49.018;12.078;2022-11-20T04:23:23;21.77;;;11.77;;
26082;SDS011;13848;49.018;12.078;2022-11-20T04:25:50;21.90;;;10.70;;
26082;SDS011;13848;49.018;12.078;2022-11-20T04:28:16;24.10;;;13.25;;
26082;SDS011;13848;49.018;12.078;2022-11-20T04:30:42;21.88;;;11.82;;
26082;SDS011;13848;49.018;12.078;2022-11-20T04:33:08;23.25;;;12.00;;
26082;SDS011;13848;49.018;12.078;2022-11-20T04:35:34;24.10;;;12.27;;
26082;SDS011;13848;49.018;12.078;2022-11-20T04:38:01;26.90;;;13.45;;
26082;SDS011;13848;49.018;12.078;2022-11-20T04:40:27;25.83;;;13.43;;
26082;SDS011;13848;49.018;12.078;2022-11-20T04:42:55;25.48;;;12.90;;
26082;SDS011;13848;49.018;12.078;2022-11-20T04:45:21;24.13;;;12.25;;
26082;SDS011;13848;49.018;12.078;2022-11-20T04:47:47;23.83;;;12.30;;
26082;SDS011;13848;49.018;12.078;2022-11-20T04:50:14;25.02;;;13.07;;
26082;SDS011;13848;49.018;12.078;2022-11-20T04:52:40;25.77;;;12.82;;
26082;SDS011;13848;49.018;12.078;2022-11-20T04:55:06;26.08;;;12.20;;
26082;SDS011;13848;49.018;12.078;2022-11-20T04:57:32;26.38;;;13.10;;
26082;SDS011;13848;49.018;12.078;2022-11-20T05:00:00;25.58;;;12.25;;
26082;SDS011;13848;49.018;12.078;2022-11-20T05:02:26;21.95;;;12.43;;
26082;SDS011;13848;49.018;12.078;2022-11-20T05:04:52;28.33;;;13.32;;
26082;SDS011;13848;49.018;12.078;2022-11-20T05:07:18;23.88;;;12.93;;
26082;SDS011;13848;49.018;12.078;2022-11-20T05:09:43;26.38;;;13.27;;
26082;SDS011;13848;49.018;12.078;2022-11-20T05:12:09;25.08;;;13.63;;
26082;SDS011;13848;49.018;12.078;2022-11-20T05:14:35;29.00;;;13.02;;
26082;SDS011;13848;49.018;12.078;2022-11-20T05:17:03;29.13;;;13.88;;
26082;SDS011;13848;49.018;12.078;2022-11-20T05:19:29;25.58;;;13.23;;
26082;SDS011;13848;49.018;12.078;2022-11-20T05:21:55;29.15;;;13.73;;
26082;SDS011;13848;49.018;12.078;2022-11-20T05:24:21;27.38;;;13.70;;
26082;SDS011;13848;49.018;12.078;2022-11-20T05:26:46;25.40;;;13.38;;
26082;SDS011;13848;49.018;12.078;2022-11-20T05:29:12;27.63;;;13.93;;
26082;SDS011;13848;49.018;12.078;2022-11-20T05:31:39;29.50;;;13.50;;
26082;SDS011;13848;49.018;12.078;2022-11-20T05:34:07;28.38;;;13.70;;
26082;SDS011;13848;49.018;12.078;2022-11-20T05:36:33;27.83;;;14.15;;
26082;SDS011;13848;49.018;12.078;2022-11-20T05:38:59;28.20;;;14.38;;
26082;SDS011;13848;49.018;12.078;2022-11-20T05:41:25;29.77;;;14.68;;
26082;SDS011;13848;49.018;12.078;2022-11-20T05:43:51;26.98;;;14.55;;
26082;SDS011;13848;49.018;12.078;2022-11-20T05:46:17;30.60;;;14.80;;
26082;SDS011;13848;49.018;12.078;2022-11-20T05:48:45;31.42;;;14.75;;
26082;SDS011;13848;49.018;12.078;2022-11-20T05:51:14;34.00;;;15.05;;
26082;SDS011;13848;49.018;12.078;2022-11-20T05:53:41;25.02;;;13.55;;
26082;SDS011;13848;49.018;12.078;2022-11-20T05:56:10;28.98;;;14.18;;
26082;SDS011;13848;49.018;12.078;2022-11-20T05:58:37;32.03;;;13.82;;
26082;SDS011;13848;49.018;12.078;2022-11-20T06:01:04;27.08;;;13.57;;
26082;SDS011;13848;49.018;12.078;2022-11-20T06:03:31;33.97;;;13.98;;
26082;SDS011;13848;49.018;12.078;2022-11-20T06:05:58;32.75;;;15.63;;
26082;SDS011;13848;49.018;12.078;2022-11-20T06:08:25;30.75;;;15.07;;
26082;SDS011;13848;49.018;12.078;2022-11-20T06:10:51;30.20;;;15.77;;
26082;SDS011;13848;49.018;12.078;2022-11-20T06:13:17;28.08;;;15.00;;
26082;SDS011;13848;49.018;12.078;2022-11-20T06:15:47;28.63;;;14.75;;
26082;SDS011;13848;49.018;12.078;2022-11-20T06:18:13;34.60;;;15.57;;
26082;SDS011;13848;49.018;12.078;2022-11-20T06:20:39;29.05;;;14.32;;
26082;SDS011;13848;49.018;12.078;2022-11-20T06:23:05;30.80;;;13.82;;
26082;SDS011;13848;49.018;12.078;2022-11-20T06:25:33;31.55;;;15.02;;
26082;SDS011;13848;49.018;12.078;2022-11-20T06:28:02;32.88;;;15.80;;
26082;SDS011;13848;49.018;12.078;2022-11-20T06:30:28;33.58;;;16.20;;
26082;SDS011;13848;49.018;12.078;2022-11-20T06:32:54;30.75;;;15.23;;
26082;SDS011;13848;49.018;12.078;2022-11-20T06:35:20;31.52;;;14.55;;
26082;SDS011;13848;49.018;12.078;2022-11-20T06:37:46;33.03;;;15.73;;
26082;SDS011;13848;49.018;12.078;2022-11-20T06:40:21;36.70;;;17.08;;
26082;SDS011;13848;49.018;12.078;2022-11-20T06:42:48;33.60;;;15.70;;
26082;SDS011;13848;49.018;12.078;2022-11-20T06:45:14;32.20;;;15.57;;
26082;SDS011;13848;49.018;12.078;2022-11-20T06:47:40;30.95;;;15.40;;
26082;SDS011;13848;49.018;12.078;2022-11-20T06:50:06;35.08;;;15.45;;
26082;SDS011;13848;49.018;12.078;2022-11-20T06:52:32;32.10;;;14.68;;
26082;SDS011;13848;49.018;12.078;2022-11-20T06:54:58;31.85;;;15.75;;
26082;SDS011;13848;49.018;12.078;2022-11-20T06:57:24;34.40;;;16.25;;
26082;SDS011;13848;49.018;12.078;2022-11-20T06:59:51;35.65;;;16.75;;
26082;SDS011;13848;49.018;12.078;2022-11-20T07:02:17;34.60;;;16.42;;
26082;SDS011;13848;49.018;12.078;2022-11-20T07:04:43;32.38;;;15.77;;
26082;SDS011;13848;49.018;12.078;2022-11-20T07:07:09;31.23;;;15.77;;
26082;SDS011;13848;49.018;12.078;2022-11-20T07:09:35;33.63;;;16.58;;
26082;SDS011;13848;49.018;12.078;2022-11-20T07:12:01;36.78;;;16.38;;
26082;SDS011;13848;49.018;12.078;2022-11-20T07:14:27;34.90;;;16.02;;
26082;SDS011;13848;49.018;12.078;2022-11-20T07:16:54;36.33;;;16.13;;
26082;SDS011;13848;49.018;12.078;2022-11-20T07:19:20;29.75;;;14.90;;
26082;SDS011;13848;49.018;12.078;2022-11-20T07:21:46;36.42;;;16.40;;
26082;SDS011;13848;49.018;12.078;2022-11-20T07:24:12;36.83;;;16.02;;
26082;SDS011;13848;49.018;12.078;2022-11-20T07:26:38;30.98;;;15.52;;
26082;SDS011;13848;49.018;12.078;2022-11-20T07:29:04;30.17;;;14.35;;
26082;SDS011;13848;49.018;12.078;2022-11-20T07:31:30;33.65;;;15.60;;
26082;SDS011;13848;49.018;12.078;2022-11-20T07:33:57;29.15;;;15.13;;
26082;SDS011;13848;49.018;12.078;2022-11-20T07:36:23;31.77;;;15.05;;
26082;SDS011;13848;49.018;12.078;2022-11-20T07:38:49;30.15;;;14.07;;
26082;SDS011;13848;49.018;12.078;2022-11-20T07:41:15;30.50;;;14.73;;
26082;SDS011;13848;49.018;12.078;2022-11-20T07:43:41;33.50;;;15.00;;
26082;SDS011;13848;49.018;12.078;2022-11-20T07:46:07;28.58;;;14.38;;
26082;SDS011;13848;49.018;12.078;2022-11-20T07:48:33;31.17;;;15.40;;
26082;SDS011;13848;49.018;12.078;2022-11-20T07:51:01;28.20;;;14.55;;
26082;SDS011;13848;49.018;12.078;2022-11-20T07:53:27;28.20;;;14.32;;
26082;SDS011;13848;49.018;12.078;2022-11-20T07:55:53;28.00;;;14.43;;
26082;SDS011;13848;49.018;12.078;2022-11-20T07:58:19;28.25;;;13.57;;
26082;SDS011;13848;49.018;12.078;2022-11-20T08:00:45;29.67;;;14.10;;
26082;SDS011;13848;49.018;12.078;2022-11-20T08:03:11;24.67;;;13.40;;
26082;SDS011;13848;49.018;12.078;2022-11-20T08:05:37;26.63;;;12.98;;
26082;SDS011;13848;49.018;12.078;2022-11-20T08:08:05;29.20;;;14.05;;
26082;SDS011;13848;49.018;12.078;2022-11-20T08:10:31;23.58;;;12.70;;
26082;SDS011;13848;49.018;12.078;2022-11-20T08:12:57;24.50;;;12.52;;
26082;SDS011;13848;49.018;12.078;2022-11-20T08:15:23;23.58;;;12.27;;
26082;SDS011;13848;49.018;12.078;2022-11-20T08:17:49;23.35;;;11.73;;
26082;SDS011;13848;49.018;12.078;2022-11-20T08:20:15;19.88;;;10.32;;
26082;SDS011;13848;49.018;12.078;2022-11-20T08:22:41;19.75;;;10.43;;
26082;SDS011;13848;49.018;12.078;2022-11-20T08:25:08;20.80;;;10.77;;
26082;SDS011;13848;49.018;12.078;2022-11-20T08:27:34;22.20;;;10.73;;
26082;SDS011;13848;49.018;12.078;2022-11-20T08:30:00;20.05;;;10.05;;
26082;SDS011;13848;49.018;12.078;2022-11-20T08:32:26;20.25;;;10.50;;
26082;SDS011;13848;49.018;12.078;2022-11-20T08:34:52;18.77;;;10.32;;
26082;SDS011;13848;49.018;12.078;2022-11-20T08:37:18;18.90;;;9.88;;
26082;SDS011;13848;49.018;12.078;2022-11-20T08:39:44;17.60;;;9.60;;
26082;SDS011;13848;49.018;12.078;2022-11-20T08:42:11;18.65;;;9.77;;
26082;SDS011;13848;49.018;12.078;2022-11-20T08:44:37;18.40;;;9.77;;
26082;SDS011;13848;49.018;12.078;2022-11-20T08:47:03;19.77;;;10.88;;
26082;SDS011;13848;49.018;12.078;2022-11-20T08:49:29;20.05;;;10.00;;
26082;SDS011;13848;49.018;12.078;2022-11-20T08:51:55;17.30;;;9.50;;
26082;SDS011;13848;49.018;12.078;2022-11-20T08:54:21;14.20;;;8.55;;
26082;SDS011;13848;49.018;12.078;2022-11-20T08:56:46;17.23;;;9.38;;
26082;SDS011;13848;49.018;12.078;2022-11-20T08:59:14;16.63;;;9.35;;
26082;SDS011;13848;49.018;12.078;2022-11-20T09:01:40;15.15;;;9.15;;
26082;SDS011;13848;49.018;12.078;2022-11-20T09:04:06;16.35;;;9.13;;
26082;SDS011;13848;49.018;12.078;2022-11-20T09:06:32;17.33;;;9.10;;
26082;SDS011;13848;49.018;12.078;2022-11-20T09:08:58;15.43;;;8.45;;
26082;SDS011;13848;49.018;12.078;2022-11-20T09:11:24;16.05;;;9.55;;
26082;SDS011;13848;49.018;12.078;2022-11-20T09:13:50;17.42;;;8.68;;
26082;SDS011;13848;49.018;12.078;2022-11-20T09:16:17;15.15;;;8.82;;
26082;SDS011;13848;49.018;12.078;2022-11-20T09:18:43;14.25;;;8.50;;
26082;SDS011;13848;49.018;12.078;2022-11-20T09:21:09;18.42;;;8.60;;
26082;SDS011;13848;49.018;12.078;2022-11-20T09:23:37;16.65;;;8.80;;
26082;SDS011;13848;49.018;12.078;2022-11-20T09:26:04;13.35;;;7.30;;
26082;SDS011;13848;49.018;12.078;2022-11-20T09:28:30;12.77;;;7.43;;
26082;SDS011;13848;49.018;12.078;2022-11-20T09:30:57;12.65;;;6.63;;
26082;SDS011;13848;49.018;12.078;2022-11-20T09:33:24;8.75;;;5.30;;
26082;SDS011;13848;49.018;12.078;2022-11-20T09:35:50;9.57;;;5.90;;
26082;SDS011;13848;49.018;12.078;2022-11-20T09:38:16;10.73;;;5.45;;
26082;SDS011;13848;49.018;12.078;2022-11-20T09:40:44;7.57;;;4.18;;
26082;SDS011;13848;49.018;12.078;2022-11-20T09:43:15;5.97;;;4.18;;
26082;SDS011;13848;49.018;12.078;2022-11-20T09:45:50;7.07;;;4.18;;
26082;SDS011;13848;49.018;12.078;2022-11-20T09:48:31;7.07;;;3.53;;
26082;SDS011;13848;49.018;12.078;2022-11-20T09:51:06;7.60;;;4.18;;
26082;SDS011;13848;49.018;12.078;2022-11-20T09:53:44;6.00;;;3.80;;
26082;SDS011;13848;49.018;12.078;2022-11-20T09:56:19;4.57;;;3.20;;
26082;SDS011;13848;49.018;12.078;2022-11-20T09:58:47;6.40;;;3.85;;
26082;SDS011;13848;49.018;12.078;2022-11-20T10:01:16;5.50;;;3.70;;
26082;SDS011;13848;49.018;12.078;2022-11-20T10:03:51;5.93;;;3.60;;
26082;SDS011;13848;49.018;12.078;2022-11-20T10:06:24;5.20;;;3.72;;
26082;SDS011;13848;49.018;12.078;2022-11-20T10:08:58;11.10;;;4.55;;
26082;SDS011;13848;49.018;12.078;2022-11-20T10:11:33;5.03;;;3.20;;
26082;SDS011;13848;49.018;12.078;2022-11-20T10:14:13;5.43;;;3.20;;
26082;SDS011;13848;49.018;12.078;2022-11-20T10:16:50;5.43;;;3.75;;
26082;SDS011;13848;49.018;12.078;2022-11-20T10:19:27;5.38;;;3.35;;
26082;SDS011;13848;49.018;12.078;2022-11-20T10:22:05;6.50;;;3.25;;
26082;SDS011;13848;49.018;12.078;2022-11-20T10:24:43;6.68;;;3.50;;
26082;SDS011;13848;49.018;12.078;2022-11-20T10:30:17;6.13;;;3.45;;
26082;SDS011;13848;49.018;12.078;2022-11-20T10:32:45;5.15;;;3.28;;
26082;SDS011;13848;49.018;12.078;2022-11-20T10:35:20;8.40;;;4.75;;
26082;SDS011;13848;49.018;12.078;2022-11-20T10:37:48;6.78;;;3.85;;
26082;SDS011;13848;49.018;12.078;2022-11-20T10:40:25;5.55;;;2.97;;
26082;SDS011;13848;49.018;12.078;2022-11-20T10:42:59;5.18;;;3.05;;
26082;SDS011;13848;49.018;12.078;2022-11-20T10:45:32;5.32;;;3.15;;
26082;SDS011;13848;49.018;12.078;2022-11-20T10:48:10;4.88;;;3.25;;
26082;SDS011;13848;49.018;12.078;2022-11-20T10:50:46;5.20;;;2.80;;
26082;SDS011;13848;49.018;12.078;2022-11-20T10:53:31;6.38;;;3.45;;
26082;SDS011;13848;49.018;12.078;2022-11-20T10:56:09;4.72;;;3.05;;
26082;SDS011;13848;49.018;12.078;2022-11-20T10:58:45;5.57;;;3.40;;
26082;SDS011;13848;49.018;12.078;2022-11-20T11:01:18;6.28;;;3.20;;
26082;SDS011;13848;49.018;12.078;2022-11-20T11:03:45;5.10;;;3.10;;
26082;SDS011;13848;49.018;12.078;2022-11-20T11:06:14;5.95;;;3.50;;
26082;SDS011;13848;49.018;12.078;2022-11-20T11:08:47;5.25;;;3.58;;
26082;SDS011;13848;49.018;12.078;2022-11-20T11:11:21;7.15;;;3.22;;
26082;SDS011;13848;49.018;12.078;2022-11-20T11:13:48;7.72;;;3.45;;
26082;SDS011;13848;49.018;12.078;2022-11-20T11:16:19;7.45;;;3.35;;
26082;SDS011;13848;49.018;12.078;2022-11-20T11:18:46;7.35;;;3.92;;
26082;SDS011;13848;49.018;12.078;2022-11-20T11:21:14;6.70;;;3.83;;
26082;SDS011;13848;49.018;12.078;2022-11-20T11:23:48;9.93;;;3.70;;
26082;SDS011;13848;49.018;12.078;2022-11-20T11:26:24;4.78;;;3.25;;
26082;SDS011;13848;49.018;12.078;2022-11-20T11:28:57;5.10;;;3.47;;
26082;SDS011;13848;49.018;12.078;2022-11-20T11:31:24;4.25;;;3.20;;
26082;SDS011;13848;49.018;12.078;2022-11-20T11:33:51;4.10;;;2.80;;
26082;SDS011;13848;49.018;12.078;2022-11-20T11:36:19;4.68;;;3.10;;
26082;SDS011;13848;49.018;12.078;2022-11-20T11:38:48;4.97;;;2.75;;
26082;SDS011;13848;49.018;12.078;2022-11-20T11:41:20;4.82;;;2.90;;
26082;SDS011;13848;49.018;12.078;2022-11-20T11:43:51;4.30;;;3.10;;
26082;SDS011;13848;49.018;12.078;2022-11-20T11:46:24;5.25;;;3.00;;
26082;SDS011;13848;49.018;12.078;2022-11-20T11:48:55;3.72;;;2.90;;
26082;SDS011;13848;49.018;12.078;2022-11-20T11:51:23;4.00;;;2.92;;
26082;SDS011;13848;49.018;12.078;2022-11-20T11:53:53;5.17;;;3.10;;
26082;SDS011;13848;49.018;12.078;2022-11-20T11:56:19;5.72;;;3.10;;
26082;SDS011;13848;49.018;12.078;2022-11-20T11:58:47;4.85;;;3.28;;
26082;SDS011;13848;49.018;12.078;2022-11-20T12:01:21;4.65;;;2.60;;
26082;SDS011;13848;49.018;12.078;2022-11-20T12:03:55;6.95;;;2.97;;
26082;SDS011;13848;49.018;12.078;2022-11-20T12:06:31;5.45;;;3.30;;
26082;SDS011;13848;49.018;12.078;2022-11-20T12:09:01;4.30;;;3.20;;
26082;SDS011;13848;49.018;12.078;2022-11-20T12:11:31;3.65;;;2.67;;
26082;SDS011;13848;49.018;12.078;2022-11-20T12:14:00;3.67;;;2.75;;
26082;SDS011;13848;49.018;12.078;2022-11-20T12:16:30;4.20;;;2.47;;
26082;SDS011;13848;49.018;12.078;2022-11-20T12:21:34;3.28;;;2.50;;
26082;SDS011;13848;49.018;12.078;2022-11-20T12:26:54;4.18;;;2.70;;
26082;SDS011;13848;49.018;12.078;2022-11-20T12:29:34;6.57;;;2.72;;
26082;SDS011;13848;49.018;12.078;2022-11-20T12:32:16;4.57;;;2.50;;
26082;SDS011;13848;49.018;12.078;2022-11-20T12:34:59;2.30;;;2.10;;
26082;SDS011;13848;49.018;12.078;2022-11-20T12:37:35;2.97;;;1.90;;
26082;SDS011;13848;49.018;12.078;2022-11-20T12:40:13;2.35;;;1.90;;
26082;SDS011;13848;49.018;12.078;2022-11-20T12:42:50;3.17;;;2.10;;
26082;SDS011;13848;49.018;12.078;2022-11-20T12:51:31;2.60;;;2.17;;
26082;SDS011;13848;49.018;12.078;2022-11-20T12:54:29;3.30;;;2.10;;
26082;SDS011;13848;49.018;12.078;2022-11-20T12:57:09;5.55;;;2.35;;
26082;SDS011;13848;49.018;12.078;2022-11-20T12:59:48;4.68;;;2.22;;
26082;SDS011;13848;49.018;12.078;2022-11-20T13:02:27;3.42;;;2.60;;
26082;SDS011;13848;49.018;12.078;2022-11-20T13:05:05;5.47;;;2.20;;
26082;SDS011;13848;49.018;12.078;2022-11-20T13:07:43;3.03;;;2.47;;
26082;SDS011;13848;49.018;12.078;2022-11-20T13:10:15;3.03;;;2.28;;
26082;SDS011;13848;49.018;12.078;2022-11-20T13:12:48;3.58;;;2.30;;
26082;SDS011;13848;49.018;12.078;2022-11-20T13:15:23;3.78;;;2.45;;
26082;SDS011;13848;49.018;12.078;2022-11-20T13:18:02;4.00;;;2.40;;
26082;SDS011;13848;49.018;12.078;2022-11-20T13:20:30;3.83;;;2.15;;
26082;SDS011;13848;49.018;12.078;2022-11-20T13:22:59;5.90;;;2.55;;
26082;SDS011;13848;49.018;12.078;2022-11-20T13:25:27;3.30;;;2.20;;
26082;SDS011;13848;49.018;12.078;2022-11-20T13:27:55;2.38;;;1.90;;
26082;SDS011;13848;49.018;12.078;2022-11-20T13:30:23;2.80;;;1.85;;
26082;SDS011;13848;49.018;12.078;2022-11-20T13:32:51;3.08;;;2.15;;
26082;SDS011;13848;49.018;12.078;2022-11-20T13:35:25;2.80;;;1.85;;
26082;SDS011;13848;49.018;12.078;2022-11-20T13:38:00;2.53;;;1.70;;
26082;SDS011;13848;49.018;12.078;2022-11-20T13:40:33;2.33;;;1.75;;
26082;SDS011;13848;49.018;12.078;2022-11-20T13:43:02;4.10;;;2.75;;
26082;SDS011;13848;49.018;12.078;2022-11-20T13:45:34;2.67;;;2.25;;
26082;SDS011;13848;49.018;12.078;2022-11-20T13:48:01;3.47;;;1.92;;
26082;SDS011;13848;49.018;12.078;2022-11-20T13:50:38;2.00;;;1.58;;
26082;SDS011;13848;49.018;12.078;2022-11-20T13:53:13;2.33;;;1.75;;
26082;SDS011;13848;49.018;12.078;2022-11-20T13:55:57;3.08;;;2.03;;
26082;SDS011;13848;49.018;12.078;2022-11-20T13:58:34;3.33;;;1.80;;
26082;SDS011;13848;49.018;12.078;2022-11-20T14:01:15;2.47;;;1.95;;
26082;SDS011;13848;49.018;12.078;2022-11-20T14:03:43;2.50;;;2.05;;
26082;SDS011;13848;49.018;12.078;2022-11-20T14:06:11;3.25;;;2.00;;
26082;SDS011;13848;49.018;12.078;2022-11-20T14:08:41;2.03;;;1.65;;
26082;SDS011;13848;49.018;12.078;2022-11-20T14:11:14;2.25;;;1.70;;
26082;SDS011;13848;49.018;12.078;2022-11-20T14:13:52;2.10;;;1.90;;
26082;SDS011;13848;49.018;12.078;2022-11-20T14:16:21;2.58;;;1.90;;
26082;SDS011;13848;49.018;12.078;2022-11-20T14:18:47;3.28;;;1.90;;
26082;SDS011;13848;49.018;12.078;2022-11-20T14:21:20;2.58;;;1.58;;
26082;SDS011;13848;49.018;12.078;2022-11-20T14:23:47;4.85;;;2.10;;
26082;SDS011;13848;49.018;12.078;2022-11-20T14:26:14;3.25;;;1.90;;
26082;SDS011;13848;49.018;12.078;2022-11-20T14:28:47;3.42;;;2.30;;
26082;SDS011;13848;49.018;12.078;2022-11-20T14:31:16;1.98;;;1.75;;
26082;SDS011;13848;49.018;12.078;2022-11-20T14:33:48;2.75;;;1.98;;
26082;SDS011;13848;49.018;12.078;2022-11-20T14:36:16;2.78;;;2.13;;
26082;SDS011;13848;49.018;12.078;2022-11-20T14:38:43;3.25;;;2.65;;
26082;SDS011;13848;49.018;12.078;2022-11-20T14:41:16;4.25;;;2.65;;
26082;SDS011;13848;49.018;12.078;2022-11-20T14:43:45;6.15;;;2.80;;